AirNav   Everest Fuels
 
 821 users online  

5PA8 Conshohocken Heliport
Conshohocken, Pennsylvania, USA

GOING TO CONSHOHOCKEN?


FAA INFORMATION EFFECTIVE 18 JUNE 2020

Location

FAA Identifier: 5PA8
Lat/Long: 40-04-10.5000N 075-18-08.5000W
40-04.175000N 075-18.141667W
40.0695833,-75.3023611
(estimated)
Elevation: 83 ft. / 25 m (estimated)
Variation: 12W (2020)
Time zone: UTC -4 (UTC -5 during Standard Time)
Zip code: 19428

Heliport Operations

Heliport use: Private use. Permission required prior to landing
Activation date: 04/2016
Control tower: no
ARTCC: NEW YORK CENTER
FSS: WILLIAMSPORT FLIGHT SERVICE STATION
Attendance: 12 7 24
Wind indicator: lighted
Segmented circle: no

Heliport Communications

WX AWOS-3 at LOM (4 nm NE): 118.925 (215-646-1068)
WX ASOS at PHL (12 nm S): PHONE 215-492-9617
WX ASOS at PNE (13 nm E): 121.15 (215-677-0146)
WX AWOS-3T at OQN (14 nm W): 121.4 ((610) 692-6190)
WX ASOS at PTW (15 nm NW): 119.425 (610-495-0823)
WX ASOS at DYL (18 nm NE): 118.875 (215-345-0392)
WX AWOS-3 at CKZ (19 nm N): 126.325 (215-257-7291)

Nearby radio navigation aids

VOR radial/distance  VOR name  Freq  Var
PTWr137/15.0POTTSTOWN VORTAC116.5009W
MXEr071/19.2MODENA VORTAC113.2009W
ARDr249/21.2YARDLEY VOR/DME108.2010W
OODr010/26.0WOODSTOWN VORTAC112.8010W
DQOr041/27.4DUPONT VORTAC114.0010W
GXUr288/32.6MC GUIRE VORTAC110.6012W
ETXr159/35.3EAST TEXAS VOR/DME110.2009W
VCNr344/35.5CEDAR LAKE VOR/DME115.2010W
RBVr268/37.9ROBBINSVILLE VORTAC113.8010W

 
NDB name  Hdg/Dist  Freq  Var  ID
AMBLER205/3.527512WING .. -. --.
RAINBOW360/39.836311WRNB .-. -. -...

Heliport Services

Runway Information

Helipad H1

Dimensions: 46 x 46 ft. / 14 x 14 m
Surface: concrete, in fair condition
Runway edge lights: PERI
Latitude: 40-04.175000N
Longitude: 075-18.141667W
Elevation: 83.0 ft.
Traffic pattern: leftleft
Obstructions: pole

Heliport Ownership and Management from official FAA records

Ownership: Privately-owned
Owner: FANATICS RETAIL GROUP NORTH, LLC
225 WASHINGTON ST
CONSHOHOCKEN, PA
Phone 484-534-8100
Manager: MELANIE JONES
225 WASHINGTON ST, 3RD FLOOR
CONSHOHOCKEN, PA 19428
Phone 484-534-8100

Additional Remarks

FOR CD CTC PHILADELPHIA APCH AT 800-354-9884.

Instrument Procedures

There are no published instrument procedures at 5PA8.

Some nearby airports with instrument procedures:

KLOM - Wings Field Airport (4 nm NE)
N10 - Perkiomen Valley Airport (10 nm NW)
KPHL - Philadelphia International Airport (12 nm S)
KPNE - Northeast Philadelphia Airport (13 nm E)
KOQN - Brandywine Regional Airport (14 nm W)
KPTW - Heritage Field Airport (15 nm NW)
KDYL - Doylestown Airport (18 nm NE)
KCKZ - Pennridge Airport (19 nm N)
 
Loc | Ops | Rwys | IFR | FBO | Links
Com | Nav | Svcs | Stats | Notes
Aerial photo
No photo
 
Airport distance calculator
Flying to Conshohocken Heliport? Find the distance to fly.

From to 5PA8

Sunrise and sunset
Times for 14-Jul-2020
 Local
(UTC-4)
 Zulu
(UTC)
Morning civil twilight05:1409:14
Sunrise05:4609:46
Sunset20:2900:29
Evening civil twilight21:0001:00

Current date and time
Zulu (UTC)  15-Jul-2020 03:24:26
Local (UTC-4)  14-Jul-2020 23:24:26
 
METAR
KLOM 
4nm NE 
150255Z AUTO 00000KT 10SM CLR 20/19 A3007 RMK AO2 T02000187 60001
KPHL 
13nm S 
150254Z 30005KT 10SM FEW080 FEW250 28/15 A3006 RMK AO2 SLP177 T02780150 51013
KPNE 
13nm E 
150254Z 29003KT 10SM CLR 25/17 A3007 RMK AO2 SLP180 T02500167 51014
KOQN 
14nm W 
150255Z AUTO 00000KT 10SM CLR 23/16 A3008 RMK AO2
KPTW 
15nm NW 
150254Z AUTO 00000KT 10SM CLR 20/17 A3009 RMK AO2 SLP184 T02000167 51012
KDYL 
18nm NE 
150254Z AUTO 00000KT 10SM CLR 22/18 A3007 RMK AO2 SLP176 T02170178 53015
KCKZ 
19nm N 
150255Z AUTO 00000KT 10SM SCT016 19/19 A3010 RMK AO2
TAF
KPHL 
13nm S 
142100Z 1421/1524 33010KT P6SM FEW060 FM150800 01005KT P6SM SKC FM151200 05005KT P6SM FEW150 FM151900 14005KT P6SM SCT060
KPNE 
13nm E 
141720Z 1418/1518 32008G18KT P6SM FEW060 FM142300 VRB04KT P6SM SKC FM151200 05005KT P6SM FEW150
NOTAMs
Click for the latest NOTAMs
NOTAMs are issued by the DoD/FAA and will open in a separate window not controlled by AirNav.

 

 
 

Would you like to see your business listed on this page?

 If your business provides an interesting product or service to pilots, flight crews, aircraft, or users of the Conshohocken Heliport, you should consider listing it here.  To start the listing process, click on the button below
 
Add a business
 

Other Pages about Conshohocken Heliport

Update a link
 
Copyright © AirNav, LLC. All rights reserved. Privacy Policy  Contact